createdAt,value
2022-11-24T00:01:09.636Z,19.03
2022-11-24T00:03:37.587Z,18.95
2022-11-24T00:06:09.984Z,15.37
2022-11-24T00:08:39.330Z,19.43
2022-11-24T00:11:08.917Z,14.20
2022-11-24T00:13:36.153Z,13.93
2022-11-24T00:16:12.893Z,11.70
2022-11-24T00:18:45.303Z,11.57
2022-11-24T00:21:13.233Z,16.80
2022-11-24T00:23:40.676Z,11.10
2022-11-24T00:26:09.767Z,13.57
2022-11-24T00:28:38.829Z,10.93
2022-11-24T00:31:24.489Z,10.03
2022-11-24T00:33:53.826Z,10.40
2022-11-24T00:36:23.449Z,8.50
2022-11-24T00:38:58.510Z,9.17
2022-11-24T00:41:26.909Z,9.90
2022-11-24T00:43:54.720Z,11.17
2022-11-24T00:46:22.239Z,8.10
2022-11-24T00:48:49.473Z,13.50
2022-11-24T00:51:18.925Z,9.73
2022-11-24T00:53:45.725Z,12.63
2022-11-24T00:56:13.505Z,8.40
2022-11-24T00:58:41.592Z,9.77
2022-11-24T01:01:17.077Z,26.90
2022-11-24T01:03:44.843Z,25.93
2022-11-24T01:06:14.406Z,10.80
2022-11-24T01:08:42.691Z,7.80
2022-11-24T01:11:18.432Z,8.73
2022-11-24T01:13:47.732Z,10.93
2022-11-24T01:16:26.357Z,8.50
2022-11-24T01:18:54.224Z,7.17
2022-11-24T01:21:21.902Z,9.83
2022-11-24T01:23:55.302Z,8.17
2022-11-24T01:26:30.943Z,9.80
2022-11-24T01:28:59.542Z,8.50
2022-11-24T01:31:39.875Z,8.47
2022-11-24T01:34:07.401Z,9.37
2022-11-24T01:36:34.865Z,7.03
2022-11-24T01:39:01.962Z,6.73
2022-11-24T01:44:28.091Z,8.13
2022-11-24T01:47:19.941Z,9.97
2022-11-24T01:49:58.040Z,8.20
2022-11-24T01:52:47.799Z,8.43
2022-11-24T01:55:23.244Z,8.50
2022-11-24T01:58:12.395Z,8.00
2022-11-24T02:00:51.806Z,8.90
2022-11-24T02:03:27.627Z,9.93
2022-11-24T02:06:02.771Z,10.17
2022-11-24T02:08:38.675Z,7.87
2022-11-24T02:11:06.746Z,8.03
2022-11-24T02:13:38.951Z,8.00
2022-11-24T02:16:13.144Z,7.23
2022-11-24T02:18:49.825Z,8.83
2022-11-24T02:21:23.250Z,9.13
2022-11-24T02:24:00.115Z,10.00
2022-11-24T02:26:49.622Z,8.33
2022-11-24T02:29:16.985Z,7.03
2022-11-24T02:31:58.836Z,8.07
2022-11-24T02:34:25.808Z,8.47
2022-11-24T02:36:53.038Z,7.00
2022-11-24T02:39:27.753Z,6.63
2022-11-24T02:42:02.414Z,8.20
2022-11-24T02:44:37.749Z,7.67
2022-11-24T02:47:13.172Z,6.80
2022-11-24T02:49:42.081Z,6.57
2022-11-24T02:52:09.533Z,7.67
2022-11-24T02:54:41.086Z,6.73
2022-11-24T02:57:14.208Z,6.80
2022-11-24T02:59:41.258Z,6.38
2022-11-24T03:02:08.725Z,6.50
2022-11-24T03:04:40.999Z,7.00
2022-11-24T03:07:08.310Z,7.27
2022-11-24T03:09:35.978Z,7.43
2022-11-24T03:12:03.344Z,7.20
2022-11-24T03:14:30.398Z,7.43
2022-11-24T03:16:57.786Z,6.70
2022-11-24T03:19:25.096Z,6.73
2022-11-24T03:21:52.802Z,11.33
2022-11-24T03:24:19.845Z,8.77
2022-11-24T03:26:46.862Z,6.37
2022-11-24T03:29:13.812Z,5.70
2022-11-24T03:31:41.007Z,6.23
2022-11-24T03:34:08.451Z,7.30
2022-11-24T03:36:35.951Z,6.63
2022-11-24T03:39:05.045Z,5.97
2022-11-24T03:41:32.112Z,7.23
2022-11-24T03:44:04.643Z,6.40
2022-11-24T03:46:32.080Z,9.53
2022-11-24T03:49:00.160Z,7.87
2022-11-24T03:51:27.203Z,6.03
2022-11-24T03:53:54.402Z,6.53
2022-11-24T03:56:21.555Z,6.93
2022-11-24T03:59:11.148Z,7.90
2022-11-24T04:01:39.110Z,7.87
2022-11-24T04:04:06.320Z,8.33
2022-11-24T04:06:33.190Z,6.77
2022-11-24T04:09:00.791Z,7.33
2022-11-24T04:11:46.490Z,7.57
2022-11-24T04:14:13.864Z,8.57
2022-11-24T04:16:41.190Z,8.83
2022-11-24T04:19:08.319Z,8.70
2022-11-24T04:21:35.533Z,8.53
2022-11-24T04:24:02.453Z,8.43
2022-11-24T04:26:29.322Z,9.43
2022-11-24T04:29:01.155Z,9.50
2022-11-24T04:31:27.970Z,11.63
2022-11-24T04:33:54.827Z,10.27
2022-11-24T04:36:21.798Z,10.53
2022-11-24T04:39:25.721Z,11.33
2022-11-24T04:41:35.884Z,12.33
2022-11-24T04:44:03.100Z,20.93
2022-11-24T04:46:32.036Z,19.47
2022-11-24T04:48:59.148Z,18.83
2022-11-24T04:51:26.121Z,20.60
2022-11-24T04:53:53.247Z,17.80
2022-11-24T04:56:20.013Z,23.03
2022-11-24T04:58:50.141Z,20.23
2022-11-24T05:01:17.110Z,17.60
2022-11-24T05:03:43.995Z,17.97
2022-11-24T05:06:11.031Z,18.00
2022-11-24T05:08:38.890Z,16.43
2022-11-24T05:11:08.020Z,18.73
2022-11-24T05:13:35.612Z,18.23
2022-11-24T05:16:03.183Z,17.97
2022-11-24T05:18:30.331Z,19.77
2022-11-24T05:20:59.025Z,19.57
2022-11-24T05:23:26.805Z,16.03
2022-11-24T05:25:54.517Z,17.47
2022-11-24T05:28:21.429Z,16.40
2022-11-24T05:30:48.234Z,15.67
2022-11-24T05:33:19.310Z,15.23
2022-11-24T05:35:48.060Z,14.23
2022-11-24T05:38:16.018Z,22.83
2022-11-24T05:40:43.664Z,25.27
2022-11-24T05:43:15.152Z,20.47
2022-11-24T05:45:42.825Z,19.63
2022-11-24T05:48:13.474Z,22.43
2022-11-24T05:50:40.846Z,24.73
2022-11-24T05:53:10.497Z,30.97
2022-11-24T05:55:41.107Z,32.70
2022-11-24T06:05:20.586Z,30.70
2022-11-24T06:11:18.864Z,29.07
2022-11-24T06:14:11.098Z,36.13
2022-11-24T06:17:44.761Z,30.67
2022-11-24T06:20:12.472Z,33.67
2022-11-24T06:22:39.820Z,28.00
2022-11-24T06:25:07.690Z,26.73
2022-11-24T06:27:35.275Z,30.33
2022-11-24T06:30:02.613Z,28.77
2022-11-24T06:32:29.733Z,30.30
2022-11-24T06:34:56.547Z,34.53
2022-11-24T06:37:23.546Z,27.13
2022-11-24T06:39:50.683Z,29.43
2022-11-24T06:42:21.444Z,27.73
2022-11-24T06:44:50.432Z,27.53
2022-11-24T06:47:28.875Z,30.13
2022-11-24T06:49:59.614Z,34.73
2022-11-24T06:52:30.837Z,30.07
2022-11-24T06:54:57.628Z,29.70
2022-11-24T06:57:25.484Z,28.00
2022-11-24T07:02:49.621Z,29.70
2022-11-24T07:05:27.711Z,28.47
2022-11-24T07:07:58.040Z,28.33
2022-11-24T07:10:33.239Z,29.33
2022-11-24T07:13:32.249Z,38.03
2022-11-24T07:16:31.702Z,30.80
2022-11-24T07:19:28.386Z,36.37
2022-11-24T07:22:10.457Z,30.03
2022-11-24T07:24:38.607Z,34.63
2022-11-24T07:27:08.872Z,32.90
2022-11-24T07:29:38.822Z,35.10
2022-11-24T07:32:10.899Z,29.10
2022-11-24T07:34:53.050Z,35.37
2022-11-24T07:37:24.520Z,31.30
2022-11-24T07:40:06.965Z,27.00
2022-11-24T07:42:35.169Z,283.00
2022-11-24T07:45:33.753Z,159.27
2022-11-24T07:48:23.266Z,98.70
2022-11-24T07:50:55.783Z,53.13
2022-11-24T07:53:28.580Z,37.53
2022-11-24T07:56:02.211Z,42.13
2022-11-24T07:59:00.051Z,41.30
2022-11-24T08:01:50.795Z,127.27
2022-11-24T08:04:18.312Z,46.63
2022-11-24T08:06:47.443Z,37.07
2022-11-24T08:09:15.205Z,31.20
2022-11-24T08:11:42.114Z,46.67
2022-11-24T08:14:09.074Z,39.27
2022-11-24T08:16:35.852Z,33.43
2022-11-24T08:19:03.129Z,30.70
2022-11-24T08:21:30.921Z,33.03
2022-11-24T08:23:58.167Z,31.23
2022-11-24T08:26:26.108Z,33.40
2022-11-24T08:28:58.684Z,29.00
2022-11-24T08:31:33.181Z,33.67
2022-11-24T08:34:01.352Z,28.23
2022-11-24T08:36:28.667Z,27.00
2022-11-24T08:38:57.287Z,23.30
2022-11-24T08:41:25.373Z,20.47
2022-11-24T08:43:52.181Z,17.83
2022-11-24T08:46:20.673Z,19.80
2022-11-24T08:48:50.368Z,18.50
2022-11-24T08:51:49.009Z,48.10
2022-11-24T08:54:18.798Z,37.40
2022-11-24T08:56:46.486Z,18.33
2022-11-24T08:59:27.781Z,38.60
2022-11-24T09:01:54.798Z,32.73
2022-11-24T09:04:21.881Z,23.70
2022-11-24T09:06:49.524Z,18.67
2022-11-24T09:09:16.685Z,17.07
2022-11-24T09:11:44.148Z,15.43
2022-11-24T09:14:11.041Z,17.00
2022-11-24T09:16:38.283Z,14.17
2022-11-24T09:19:08.479Z,15.87
2022-11-24T09:21:39.715Z,19.50
2022-11-24T09:24:08.279Z,18.03
2022-11-24T09:26:37.313Z,15.03
2022-11-24T09:29:06.578Z,17.30
2022-11-24T09:31:35.861Z,15.73
2022-11-24T09:34:07.409Z,14.87
2022-11-24T09:36:34.468Z,13.80
2022-11-24T09:39:01.727Z,14.60
2022-11-24T09:41:47.166Z,16.57
2022-11-24T09:44:51.871Z,19.10
2022-11-24T09:47:53.254Z,14.97
2022-11-24T09:50:24.388Z,18.73
2022-11-24T09:53:13.570Z,19.80
2022-11-24T09:55:50.722Z,32.90
2022-11-24T09:58:45.214Z,32.33
2022-11-24T10:01:29.685Z,27.20
2022-11-24T10:04:04.273Z,33.67
2022-11-24T10:06:52.006Z,31.47
2022-11-24T10:09:21.995Z,29.03
2022-11-24T10:12:25.305Z,25.63
2022-11-24T10:15:19.376Z,23.77
2022-11-24T10:17:53.386Z,19.33
2022-11-24T10:20:23.283Z,25.83
2022-11-24T10:23:09.005Z,31.13
2022-11-24T10:25:50.441Z,43.07
2022-11-24T10:28:23.156Z,60.33
2022-11-24T10:31:11.314Z,29.37
2022-11-24T10:33:38.744Z,60.87
2022-11-24T10:36:16.339Z,43.33
2022-11-24T10:38:53.724Z,37.57
2022-11-24T10:41:42.492Z,46.23
2022-11-24T10:44:15.966Z,41.67
2022-11-24T10:46:44.929Z,40.83
2022-11-24T10:49:36.456Z,26.30
2022-11-24T10:52:07.484Z,37.27
2022-11-24T10:54:36.777Z,39.00
2022-11-24T10:57:03.968Z,44.53
2022-11-24T11:00:17.374Z,31.67
2022-11-24T11:35:46.427Z,38.67
2022-11-24T11:38:22.288Z,26.63
2022-11-24T11:40:51.082Z,25.07
2022-11-24T11:43:50.217Z,23.47
2022-11-24T11:46:17.331Z,18.43
2022-11-24T11:48:47.721Z,21.57
2022-11-24T11:51:39.193Z,18.50
2022-11-24T11:54:51.673Z,15.33
2022-11-24T11:57:44.405Z,16.90
2022-11-24T12:00:20.825Z,18.67
2022-11-24T12:03:09.096Z,15.73
2022-11-24T12:06:06.237Z,31.33
2022-11-24T12:09:19.165Z,16.40
2022-11-24T12:12:05.945Z,17.13
2022-11-24T12:14:59.619Z,16.63
2022-11-24T12:17:40.933Z,16.02
2022-11-24T12:20:26.349Z,14.73
2022-11-24T12:23:12.816Z,15.33
2022-11-24T12:26:07.592Z,16.43
2022-11-24T12:29:29.256Z,14.23
2022-11-24T12:32:22.691Z,13.57
2022-11-24T12:35:24.676Z,14.20
2022-11-24T12:38:03.142Z,13.53
2022-11-24T12:41:06.451Z,12.33
2022-11-24T12:43:53.660Z,18.03
2022-11-24T12:46:39.960Z,21.87
2022-11-24T12:49:28.007Z,17.67
2022-11-24T12:52:17.879Z,31.40
2022-11-24T12:54:44.626Z,20.80
2022-11-24T12:57:24.003Z,15.53
2022-11-24T13:00:08.702Z,19.23
2022-11-24T13:02:53.847Z,13.63
2022-11-24T13:05:31.542Z,13.07
2022-11-24T13:08:02.015Z,13.27
2022-11-24T13:10:54.762Z,13.40
2022-11-24T13:13:20.408Z,8.97
2022-11-24T13:18:48.914Z,11.87
2022-11-24T13:25:12.012Z,12.17
2022-11-24T13:30:35.698Z,9.90
2022-11-24T13:33:16.536Z,10.00
2022-11-24T13:36:02.821Z,12.87
2022-11-24T13:39:04.752Z,16.87
2022-11-24T13:41:37.350Z,12.87
2022-11-24T13:44:16.878Z,12.07
2022-11-24T13:47:31.722Z,13.30
2022-11-24T13:52:38.697Z,12.40
2022-11-24T13:55:34.391Z,11.77
2022-11-24T13:58:07.746Z,13.53
2022-11-24T14:00:58.351Z,12.35
2022-11-24T14:04:28.801Z,11.90
2022-11-24T14:06:50.679Z,13.63
2022-11-24T14:09:26.673Z,12.13
2022-11-24T14:12:22.640Z,13.30
2022-11-24T14:18:21.592Z,13.37
2022-11-24T14:20:50.170Z,13.33
2022-11-24T14:23:18.346Z,21.87
2022-11-24T14:25:51.602Z,17.40
2022-11-24T14:32:00.877Z,28.97
2022-11-24T14:34:30.277Z,19.75
2022-11-24T14:37:15.307Z,38.57
2022-11-24T14:39:43.245Z,28.00
2022-11-24T14:42:20.285Z,23.20
2022-11-24T14:45:04.479Z,29.60
2022-11-24T14:47:36.427Z,31.10
2022-11-24T14:50:37.923Z,20.93
2022-11-24T14:53:32.770Z,22.57
2022-11-24T14:56:31.323Z,17.83
2022-11-24T14:59:23.806Z,17.10
2022-11-24T15:01:51.686Z,14.17
2022-11-24T15:05:01.628Z,12.90
2022-11-24T15:07:19.965Z,13.83
2022-11-24T15:09:53.920Z,13.17
2022-11-24T15:12:23.834Z,13.60
2022-11-24T15:15:15.201Z,14.07
2022-11-24T15:18:38.300Z,12.83
2022-11-24T15:21:43.843Z,13.23
2022-11-24T15:27:39.280Z,14.57
2022-11-24T15:30:23.556Z,14.53
2022-11-24T15:37:21.253Z,13.80
2022-11-24T15:39:47.902Z,12.10
2022-11-24T15:42:16.243Z,17.30
2022-11-24T15:44:43.445Z,16.40
2022-11-24T15:47:10.144Z,19.70
2022-11-24T15:49:37.600Z,22.80
2022-11-24T15:52:07.099Z,24.57
2022-11-24T15:54:35.292Z,21.83
2022-11-24T15:57:02.157Z,18.23
2022-11-24T15:59:31.835Z,31.57
2022-11-24T16:01:58.509Z,19.23
2022-11-24T16:04:25.107Z,14.53
2022-11-24T16:06:51.722Z,15.13
2022-11-24T16:09:18.450Z,14.77
2022-11-24T16:11:45.125Z,14.43
2022-11-24T16:14:11.917Z,16.07
2022-11-24T16:16:38.794Z,15.70
2022-11-24T16:19:05.422Z,22.70
2022-11-24T16:21:32.104Z,23.40
2022-11-24T16:23:59.289Z,23.00
2022-11-24T16:26:25.900Z,19.47
2022-11-24T16:28:52.587Z,18.47
2022-11-24T16:31:19.890Z,19.17
2022-11-24T16:33:46.774Z,19.73
2022-11-24T16:36:14.445Z,18.77
2022-11-24T16:38:41.135Z,19.93
2022-11-24T16:41:08.976Z,20.40
2022-11-24T16:43:35.620Z,18.33
2022-11-24T16:46:21.358Z,18.40
2022-11-24T16:48:50.373Z,21.63
2022-11-24T16:51:17.964Z,22.63
2022-11-24T16:53:45.196Z,22.93
2022-11-24T16:56:12.080Z,22.10
2022-11-24T16:58:40.541Z,18.63
2022-11-24T17:01:12.309Z,18.30
2022-11-24T17:03:39.528Z,15.20
2022-11-24T17:06:08.332Z,16.30
2022-11-24T17:08:36.814Z,15.67
2022-11-24T17:11:15.009Z,15.07
2022-11-24T17:13:42.362Z,14.03
2022-11-24T17:16:14.228Z,15.00
2022-11-24T17:18:41.354Z,13.07
2022-11-24T17:21:13.063Z,14.47
2022-11-24T17:23:40.108Z,16.30
2022-11-24T17:26:10.535Z,14.17
2022-11-24T17:28:37.961Z,18.10
2022-11-24T17:31:27.496Z,13.73
2022-11-24T17:33:57.157Z,15.50
2022-11-24T17:36:24.656Z,17.30
2022-11-24T17:38:51.305Z,15.63
2022-11-24T17:41:19.346Z,14.13
2022-11-24T17:43:53.500Z,16.83
2022-11-24T17:46:20.337Z,14.23
2022-11-24T17:48:47.393Z,13.97
2022-11-24T17:51:16.431Z,15.10
2022-11-24T17:53:46.055Z,13.40
2022-11-24T17:56:14.966Z,17.73
2022-11-24T17:58:43.311Z,16.07
2022-11-24T18:01:11.980Z,13.80
2022-11-24T18:03:39.831Z,15.63
2022-11-24T18:06:10.865Z,15.57
2022-11-24T18:08:38.819Z,14.93
2022-11-24T18:11:07.651Z,15.70
2022-11-24T18:13:55.869Z,15.70
2022-11-24T18:16:21.678Z,16.70
2022-11-24T18:18:50.982Z,20.07
2022-11-24T18:21:18.633Z,20.83
2022-11-24T18:23:46.854Z,19.80
2022-11-24T18:26:15.663Z,21.50
2022-11-24T18:28:43.596Z,21.17
2022-11-24T18:31:14.257Z,18.13
2022-11-24T18:33:43.523Z,23.43
2022-11-24T18:36:14.491Z,19.27
2022-11-24T18:38:41.912Z,22.47
2022-11-24T18:41:08.882Z,17.80
2022-11-24T18:43:37.594Z,22.63
2022-11-24T18:46:16.396Z,21.73
2022-11-24T18:48:44.357Z,19.60
2022-11-24T18:51:15.333Z,23.37
2022-11-24T18:53:43.824Z,21.43
2022-11-24T18:56:16.089Z,23.90
2022-11-24T18:58:44.484Z,22.83
2022-11-24T19:01:12.834Z,22.80
2022-11-24T19:03:48.587Z,22.87
2022-11-24T19:06:24.032Z,24.07
2022-11-24T19:08:53.502Z,24.47
2022-11-24T19:11:23.751Z,26.67
2022-11-24T19:13:51.207Z,22.57
2022-11-24T19:16:20.261Z,23.43
2022-11-24T19:18:53.763Z,26.27
2022-11-24T19:21:22.495Z,52.80
2022-11-24T19:23:50.312Z,33.37
2022-11-24T19:26:17.775Z,47.30
2022-11-24T19:28:44.821Z,103.20
2022-11-24T19:31:14.498Z,43.43
2022-11-24T19:33:45.425Z,75.83
2022-11-24T19:36:16.697Z,37.47
2022-11-24T19:38:50.686Z,44.60
2022-11-24T19:41:22.835Z,33.97
2022-11-24T19:43:49.630Z,29.07
2022-11-24T19:46:18.817Z,31.57
2022-11-24T19:48:49.190Z,34.90
2022-11-24T19:51:22.061Z,32.70
2022-11-24T19:53:48.819Z,29.17
2022-11-24T19:56:20.208Z,33.00
2022-11-24T19:58:47.567Z,33.00
2022-11-24T20:01:16.985Z,33.90
2022-11-24T20:03:45.940Z,37.60
2022-11-24T20:06:14.925Z,36.97
2022-11-24T20:08:43.528Z,38.13
2022-11-24T20:11:13.005Z,34.97
2022-11-24T20:13:42.414Z,37.70
2022-11-24T20:16:20.332Z,41.77
2022-11-24T20:18:48.089Z,40.70
2022-11-24T20:21:17.944Z,37.87
2022-11-24T20:23:46.884Z,34.87
2022-11-24T20:26:16.233Z,68.10
2022-11-24T20:28:43.407Z,58.80
2022-11-24T20:31:15.975Z,142.77
2022-11-24T20:33:43.670Z,66.37
2022-11-24T20:36:16.867Z,52.50
2022-11-24T20:38:45.314Z,41.20
2022-11-24T20:41:17.707Z,34.90
2022-11-24T20:43:46.069Z,35.37
2022-11-24T20:46:26.845Z,37.70
2022-11-24T20:48:55.681Z,36.63
2022-11-24T20:51:25.142Z,32.30
2022-11-24T20:53:55.103Z,35.93
2022-11-24T20:56:25.398Z,35.27
2022-11-24T20:58:52.969Z,38.10
2022-11-24T21:01:29.177Z,33.93
2022-11-24T21:03:59.744Z,33.30
2022-11-24T21:06:28.513Z,30.13
2022-11-24T21:09:00.406Z,34.57
2022-11-24T21:11:31.096Z,32.53
2022-11-24T21:13:58.514Z,39.30
2022-11-24T21:16:31.490Z,35.10
2022-11-24T21:19:05.432Z,38.72
2022-11-24T21:21:35.492Z,32.43
2022-11-24T21:24:04.643Z,44.57
2022-11-24T21:26:32.241Z,37.93
2022-11-24T21:28:59.430Z,39.83
2022-11-24T21:31:26.571Z,57.10
2022-11-24T21:33:55.101Z,59.37
2022-11-24T21:36:24.727Z,46.20
2022-11-24T21:38:57.044Z,38.40
2022-11-24T21:41:26.742Z,43.03
2022-11-24T21:43:57.797Z,44.43
2022-11-24T21:46:25.502Z,42.63
2022-11-24T21:48:52.672Z,37.83
2022-11-24T21:51:20.988Z,41.23
2022-11-24T21:53:48.292Z,41.57
2022-11-24T21:56:21.021Z,36.70
2022-11-24T21:58:53.977Z,44.50
2022-11-24T22:01:23.950Z,42.83
2022-11-24T22:03:51.696Z,48.47
2022-11-24T22:06:20.616Z,42.30
2022-11-24T22:08:48.924Z,44.50
2022-11-24T22:11:21.933Z,41.73
2022-11-24T22:13:50.932Z,39.83
2022-11-24T22:16:22.872Z,40.27
2022-11-24T22:18:50.994Z,40.10
2022-11-24T22:21:30.860Z,40.93
2022-11-24T22:23:58.365Z,40.83
2022-11-24T22:26:26.326Z,41.80
2022-11-24T22:28:57.823Z,40.27
2022-11-24T22:31:27.986Z,44.07
2022-11-24T22:33:56.526Z,38.90
2022-11-24T22:36:25.724Z,40.40
2022-11-24T22:39:03.378Z,39.57
2022-11-24T22:41:31.495Z,40.73
2022-11-24T22:43:58.822Z,45.97
2022-11-24T22:46:29.728Z,38.13
2022-11-24T22:48:59.712Z,38.13
2022-11-24T22:51:34.734Z,37.93
2022-11-24T22:54:03.294Z,37.67
2022-11-24T22:56:32.635Z,36.20
2022-11-24T22:59:00.973Z,38.90
2022-11-24T23:01:30.551Z,35.47
2022-11-24T23:03:58.391Z,35.97
2022-11-24T23:06:27.508Z,40.57
2022-11-24T23:08:56.065Z,33.43
2022-11-24T23:11:34.846Z,35.63
2022-11-24T23:14:11.760Z,35.80
2022-11-24T23:16:38.494Z,38.10
2022-11-24T23:19:06.323Z,34.43
2022-11-24T23:21:36.548Z,37.70
2022-11-24T23:24:05.151Z,35.20
2022-11-24T23:26:36.143Z,36.80
2022-11-24T23:29:04.479Z,34.57
2022-11-24T23:31:32.488Z,34.73
2022-11-24T23:34:01.797Z,33.77
2022-11-24T23:36:30.194Z,32.57
2022-11-24T23:39:02.055Z,35.07
2022-11-24T23:41:31.590Z,32.50
2022-11-24T23:43:59.150Z,32.63
2022-11-24T23:46:27.656Z,34.33
2022-11-24T23:48:56.808Z,33.37
2022-11-24T23:51:29.588Z,35.67
2022-11-24T23:53:58.150Z,36.53
2022-11-24T23:56:29.123Z,36.80
2022-11-24T23:58:55.796Z,37.03
